createdAt,value
2023-06-03T00:00:15.738Z,4.25
2023-06-03T00:02:43.007Z,5.78
2023-06-03T00:05:09.555Z,5.45
2023-06-03T00:07:35.935Z,4.28
2023-06-03T00:10:02.479Z,5.00
2023-06-03T00:12:28.865Z,4.28
2023-06-03T00:14:55.257Z,4.38
2023-06-03T00:17:22.769Z,4.35
2023-06-03T00:19:49.742Z,4.40
2023-06-03T00:22:16.133Z,4.70
2023-06-03T00:24:42.588Z,5.13
2023-06-03T00:27:08.973Z,5.40
2023-06-03T00:29:35.615Z,4.53
2023-06-03T00:32:02.050Z,4.80
2023-06-03T00:34:28.434Z,4.95
2023-06-03T00:36:54.915Z,4.32
2023-06-03T00:39:22.892Z,5.55
2023-06-03T00:41:49.349Z,4.78
2023-06-03T00:44:15.720Z,5.88
2023-06-03T00:46:42.641Z,5.75
2023-06-03T00:49:09.102Z,6.05
2023-06-03T00:51:36.551Z,5.43
2023-06-03T00:54:03.317Z,6.22
2023-06-03T00:56:35.457Z,5.90
2023-06-03T00:59:02.077Z,5.40
2023-06-03T01:01:30.040Z,5.55
2023-06-03T01:03:57.227Z,5.32
2023-06-03T01:07:08.599Z,4.75
2023-06-03T01:09:46.038Z,5.10
2023-06-03T01:12:34.996Z,5.40
2023-06-03T01:15:07.627Z,5.20
2023-06-03T01:17:40.832Z,5.60
2023-06-03T01:20:11.324Z,5.30
2023-06-03T01:22:43.910Z,5.57
2023-06-03T01:25:12.210Z,5.32
2023-06-03T01:27:42.952Z,5.15
2023-06-03T01:30:21.278Z,4.90
2023-06-03T01:32:50.342Z,5.03
2023-06-03T01:35:17.835Z,5.07
2023-06-03T01:37:45.663Z,5.18
2023-06-03T01:40:13.300Z,5.22
2023-06-03T01:42:39.823Z,6.60
2023-06-03T01:45:07.084Z,5.20
2023-06-03T01:47:35.204Z,4.63
2023-06-03T01:50:01.770Z,4.30
2023-06-03T01:52:30.352Z,5.65
2023-06-03T01:54:56.810Z,4.65
2023-06-03T01:57:23.356Z,4.82
2023-06-03T01:59:50.636Z,4.70
2023-06-03T02:02:17.122Z,5.40
2023-06-03T02:04:45.869Z,4.90
2023-06-03T02:07:12.573Z,4.82
2023-06-03T02:09:40.107Z,5.22
2023-06-03T02:12:08.305Z,4.82
2023-06-03T02:14:34.734Z,4.78
2023-06-03T02:17:01.258Z,5.00
2023-06-03T02:19:27.981Z,5.63
2023-06-03T02:21:57.506Z,4.45
2023-06-03T02:24:24.850Z,4.57
2023-06-03T02:26:51.759Z,5.63
2023-06-03T02:29:19.691Z,4.40
2023-06-03T02:31:47.345Z,4.97
2023-06-03T02:34:13.844Z,4.47
2023-06-03T02:36:40.940Z,4.38
2023-06-03T02:39:10.315Z,4.32
2023-06-03T02:41:38.278Z,4.67
2023-06-03T02:44:06.127Z,4.50
2023-06-03T02:46:33.394Z,4.40
2023-06-03T02:49:06.711Z,4.05
2023-06-03T02:51:34.087Z,4.43
2023-06-03T02:54:00.652Z,4.10
2023-06-03T02:56:27.264Z,4.03
2023-06-03T02:58:53.878Z,3.92
2023-06-03T03:01:20.452Z,3.55
2023-06-03T03:03:47.866Z,4.07
2023-06-03T03:06:20.772Z,4.30
2023-06-03T03:08:48.500Z,4.28
2023-06-03T03:11:17.022Z,3.80
2023-06-03T03:13:45.612Z,3.95
2023-06-03T03:16:14.408Z,3.85
2023-06-03T03:18:42.946Z,3.45
2023-06-03T03:21:11.937Z,3.63
2023-06-03T03:23:39.030Z,3.60
2023-06-03T03:26:08.982Z,4.18
2023-06-03T03:28:36.577Z,3.40
2023-06-03T03:31:05.932Z,3.05
2023-06-03T03:33:34.052Z,3.53
2023-06-03T03:36:09.290Z,3.53
2023-06-03T03:38:40.883Z,3.08
2023-06-03T03:41:07.617Z,3.13
2023-06-03T03:43:36.768Z,3.85
2023-06-03T03:46:10.471Z,3.35
2023-06-03T03:48:37.453Z,3.40
2023-06-03T03:51:04.738Z,3.33
2023-06-03T03:53:38.331Z,3.00
2023-06-03T03:56:10.951Z,3.42
2023-06-03T03:58:45.262Z,3.28
2023-06-03T04:01:25.140Z,4.05
2023-06-03T04:04:01.136Z,2.88
2023-06-03T04:06:34.052Z,3.00
2023-06-03T04:09:02.385Z,2.50
2023-06-03T04:11:39.363Z,3.45
2023-06-03T04:14:12.226Z,2.80
2023-06-03T04:16:56.936Z,3.28
2023-06-03T04:19:42.620Z,3.17
2023-06-03T04:22:23.082Z,3.25
2023-06-03T04:24:57.634Z,2.63
2023-06-03T04:27:26.484Z,2.40
2023-06-03T04:29:53.413Z,2.60
2023-06-03T04:32:20.797Z,2.95
2023-06-03T04:34:55.111Z,2.65
2023-06-03T04:37:23.419Z,2.28
2023-06-03T04:39:52.133Z,3.00
2023-06-03T04:42:18.662Z,2.35
2023-06-03T04:44:49.261Z,2.60
2023-06-03T04:47:18.413Z,2.50
2023-06-03T04:49:48.118Z,2.92
2023-06-03T04:52:14.670Z,2.45
2023-06-03T04:54:45.473Z,3.03
2023-06-03T04:57:13.985Z,2.17
2023-06-03T04:59:41.531Z,2.90
2023-06-03T05:02:09.678Z,2.70
2023-06-03T05:04:38.398Z,2.40
2023-06-03T05:07:05.721Z,2.35
2023-06-03T05:09:32.478Z,2.40
2023-06-03T05:11:59.310Z,2.58
2023-06-03T05:14:26.308Z,2.25
2023-06-03T05:16:52.930Z,2.17
2023-06-03T05:19:19.666Z,2.00
2023-06-03T05:21:46.115Z,2.17
2023-06-03T05:24:13.292Z,2.05
2023-06-03T05:26:40.669Z,1.90
2023-06-03T05:29:07.080Z,2.10
2023-06-03T05:31:33.450Z,1.90
2023-06-03T05:33:59.982Z,1.95
2023-06-03T05:36:27.536Z,1.77
2023-06-03T05:38:56.685Z,3.28
2023-06-03T05:41:23.947Z,1.80
2023-06-03T05:43:50.457Z,1.90
2023-06-03T05:46:16.926Z,1.70
2023-06-03T05:48:44.303Z,2.08
2023-06-03T05:51:10.963Z,1.98
2023-06-03T05:53:39.337Z,2.00
2023-06-03T05:56:05.993Z,1.98
2023-06-03T05:58:33.148Z,1.58
2023-06-03T06:00:59.836Z,2.45
2023-06-03T06:03:27.019Z,1.70
2023-06-03T06:05:53.573Z,1.58
2023-06-03T06:08:19.961Z,1.67
2023-06-03T06:10:46.552Z,1.55
2023-06-03T06:13:12.944Z,1.48
2023-06-03T06:15:40.448Z,1.55
2023-06-03T06:18:07.016Z,1.75
2023-06-03T06:20:33.430Z,1.70
2023-06-03T06:23:00.046Z,1.40
2023-06-03T06:25:26.524Z,2.15
2023-06-03T06:27:52.900Z,1.65
2023-06-03T06:30:20.358Z,1.45
2023-06-03T06:32:53.689Z,1.30
2023-06-03T06:35:28.510Z,1.10
2023-06-03T06:37:59.557Z,1.50
2023-06-03T06:42:57.002Z,2.15
2023-06-03T06:45:35.348Z,1.88
2023-06-03T06:48:09.606Z,1.73
2023-06-03T06:50:48.879Z,1.27
2023-06-03T06:53:19.291Z,1.48
2023-06-03T06:55:56.708Z,1.60
2023-06-03T06:58:38.419Z,1.48
2023-06-03T07:01:07.947Z,1.58
2023-06-03T07:03:39.371Z,1.65
2023-06-03T07:06:06.653Z,1.65
2023-06-03T07:08:34.975Z,1.40
2023-06-03T07:11:05.290Z,1.27
2023-06-03T07:13:37.096Z,2.00
2023-06-03T07:16:05.713Z,1.30
2023-06-03T07:18:33.606Z,1.42
2023-06-03T07:21:00.840Z,1.50
2023-06-03T07:23:29.762Z,1.30
2023-06-03T07:25:57.415Z,1.35
2023-06-03T07:28:36.140Z,1.50
2023-06-03T07:31:10.774Z,1.67
2023-06-03T07:33:46.157Z,1.20
2023-06-03T07:36:16.215Z,1.80
2023-06-03T07:39:16.577Z,1.35
2023-06-03T07:41:54.876Z,1.70
2023-06-03T07:44:45.100Z,1.50
2023-06-03T07:47:16.695Z,1.58
2023-06-03T07:49:48.232Z,1.48
2023-06-03T07:52:22.372Z,1.50
2023-06-03T07:54:49.700Z,1.38
2023-06-03T07:57:17.008Z,1.60
2023-06-03T07:59:52.552Z,1.77
2023-06-03T08:02:19.119Z,1.90
2023-06-03T08:04:45.887Z,1.67
2023-06-03T08:07:13.471Z,1.80
2023-06-03T08:09:41.253Z,1.67
2023-06-03T08:12:09.471Z,1.92
2023-06-03T08:14:40.568Z,1.77
2023-06-03T08:19:44.039Z,2.00
2023-06-03T08:22:36.721Z,1.90
2023-06-03T08:25:03.251Z,2.35
2023-06-03T08:27:32.567Z,2.10
2023-06-03T08:29:58.994Z,2.10
2023-06-03T08:32:25.490Z,2.72
2023-06-03T08:34:51.985Z,2.00
2023-06-03T08:37:18.554Z,1.80
2023-06-03T08:39:45.232Z,2.42
2023-06-03T08:42:16.205Z,1.92
2023-06-03T08:45:09.377Z,2.05
2023-06-03T08:47:44.785Z,2.35
2023-06-03T08:50:11.967Z,1.95
2023-06-03T08:52:40.248Z,2.45
2023-06-03T08:55:15.086Z,2.20
2023-06-03T08:57:48.775Z,3.75
2023-06-03T09:00:21.862Z,2.72
2023-06-03T09:02:49.317Z,2.50
2023-06-03T09:05:16.925Z,2.35
2023-06-03T09:07:45.109Z,2.42
2023-06-03T09:10:12.265Z,2.38
2023-06-03T09:12:39.289Z,2.47
2023-06-03T09:15:07.043Z,2.72
2023-06-03T09:17:36.231Z,2.63
2023-06-03T09:20:06.076Z,2.33
2023-06-03T09:22:32.873Z,2.38
2023-06-03T09:24:59.270Z,2.55
2023-06-03T09:27:25.718Z,2.35
2023-06-03T09:29:55.054Z,2.35
2023-06-03T09:32:22.329Z,2.97
2023-06-03T09:34:49.997Z,2.47
2023-06-03T09:37:16.436Z,2.53
2023-06-03T09:39:44.030Z,4.03
2023-06-03T09:42:11.395Z,3.47
2023-06-03T09:44:50.251Z,2.78
2023-06-03T09:47:17.413Z,2.88
2023-06-03T09:50:05.586Z,2.80
2023-06-03T09:52:39.484Z,2.38
2023-06-03T09:55:10.320Z,2.83
2023-06-03T09:57:40.676Z,3.03
2023-06-03T10:00:10.374Z,3.33
2023-06-03T10:02:39.865Z,2.92
2023-06-03T10:05:26.267Z,2.70
2023-06-03T10:07:52.677Z,2.90
2023-06-03T10:10:19.162Z,2.67
2023-06-03T10:12:46.613Z,3.03
2023-06-03T10:15:12.986Z,3.40
2023-06-03T10:17:47.671Z,3.05
2023-06-03T10:20:32.530Z,2.97
2023-06-03T10:23:01.935Z,3.10
2023-06-03T10:25:31.787Z,3.08
2023-06-03T10:27:59.066Z,3.13
2023-06-03T10:30:27.072Z,3.55
2023-06-03T10:32:56.863Z,3.40
2023-06-03T10:35:23.930Z,2.20
2023-06-03T10:37:50.547Z,3.05
2023-06-03T10:40:17.553Z,2.80
2023-06-03T10:42:45.247Z,3.17
2023-06-03T10:45:12.413Z,3.60
2023-06-03T10:47:41.555Z,2.53
2023-06-03T10:50:29.816Z,3.00
2023-06-03T10:53:09.343Z,3.28
2023-06-03T10:56:09.192Z,3.10
2023-06-03T10:58:37.389Z,3.08
2023-06-03T11:01:07.465Z,2.65
2023-06-03T11:03:55.375Z,3.03
2023-06-03T11:06:22.425Z,3.08
2023-06-03T11:09:09.872Z,2.88
2023-06-03T11:11:42.281Z,2.80
2023-06-03T11:14:08.622Z,2.70
2023-06-03T11:17:01.440Z,2.92
2023-06-03T11:19:35.729Z,2.67
2023-06-03T11:22:08.439Z,2.38
2023-06-03T11:24:41.129Z,2.50
2023-06-03T11:27:10.515Z,3.22
2023-06-03T11:29:58.187Z,2.95
2023-06-03T11:32:27.232Z,2.80
2023-06-03T11:35:02.965Z,2.93
2023-06-03T11:37:41.819Z,2.58
2023-06-03T11:40:17.919Z,2.85
2023-06-03T11:42:50.638Z,2.58
2023-06-03T11:45:25.866Z,2.90
2023-06-03T11:48:05.368Z,2.97
2023-06-03T11:50:54.666Z,3.33
2023-06-03T11:53:31.617Z,3.20
2023-06-03T11:56:11.178Z,2.70
2023-06-03T12:01:18.958Z,2.95
2023-06-03T12:04:01.890Z,2.92
2023-06-03T12:06:37.694Z,2.95
2023-06-03T12:09:04.338Z,3.03
2023-06-03T12:11:33.010Z,3.10
2023-06-03T12:14:01.023Z,2.90
2023-06-03T12:16:32.733Z,3.50
2023-06-03T12:19:01.880Z,3.30
2023-06-03T12:21:28.460Z,3.40
2023-06-03T12:23:55.612Z,2.70
2023-06-03T12:26:22.143Z,3.47
2023-06-03T12:28:48.580Z,3.20
2023-06-03T12:31:16.781Z,3.17
2023-06-03T12:33:44.685Z,2.67
2023-06-03T12:36:11.878Z,3.00
2023-06-03T12:38:58.025Z,3.10
2023-06-03T12:41:24.834Z,3.10
2023-06-03T12:44:04.792Z,3.05
2023-06-03T12:46:31.644Z,3.45
2023-06-03T12:49:13.542Z,4.20
2023-06-03T12:51:39.935Z,2.88
2023-06-03T12:54:06.825Z,3.28
2023-06-03T12:56:34.409Z,3.05
2023-06-03T12:59:01.433Z,3.42
2023-06-03T13:01:28.211Z,2.80
2023-06-03T13:03:57.523Z,2.95
2023-06-03T13:06:25.482Z,3.83
2023-06-03T13:08:53.004Z,3.10
2023-06-03T13:11:21.241Z,3.53
2023-06-03T13:13:47.999Z,3.88
2023-06-03T13:16:14.732Z,3.42
2023-06-03T13:18:43.992Z,3.67
2023-06-03T13:21:11.279Z,2.90
2023-06-03T13:23:37.677Z,3.58
2023-06-03T13:26:04.026Z,2.90
2023-06-03T13:28:30.461Z,3.75
2023-06-03T13:30:57.034Z,3.40
2023-06-03T13:33:23.507Z,3.65
2023-06-03T13:35:49.897Z,3.38
2023-06-03T13:38:16.553Z,3.35
2023-06-03T13:40:42.985Z,3.00
2023-06-03T13:43:09.811Z,3.08
2023-06-03T13:45:36.221Z,3.05
2023-06-03T13:48:02.653Z,3.65
2023-06-03T13:50:29.200Z,3.15
2023-06-03T13:52:55.991Z,3.42
2023-06-03T13:55:22.398Z,3.28
2023-06-03T13:57:48.756Z,3.03
2023-06-03T14:00:15.327Z,2.80
2023-06-03T14:02:41.772Z,3.30
2023-06-03T14:05:08.958Z,3.35
2023-06-03T14:07:35.387Z,3.42
2023-06-03T14:10:01.840Z,2.85
2023-06-03T14:12:28.994Z,3.83
2023-06-03T14:14:55.357Z,3.08
2023-06-03T14:17:23.289Z,3.05
2023-06-03T14:19:49.768Z,3.80
2023-06-03T14:22:16.210Z,3.00
2023-06-03T14:24:44.651Z,3.08
2023-06-03T14:27:11.010Z,3.00
2023-06-03T14:29:37.469Z,3.17
2023-06-03T14:32:04.329Z,2.55
2023-06-03T14:34:30.983Z,2.92
2023-06-03T14:36:57.558Z,2.65
2023-06-03T14:39:24.001Z,3.30
2023-06-03T14:41:52.400Z,2.97
2023-06-03T14:44:18.971Z,3.10
2023-06-03T14:46:45.395Z,3.30
2023-06-03T14:49:11.758Z,3.78
2023-06-03T14:51:38.301Z,2.83
2023-06-03T14:54:04.881Z,3.22
2023-06-03T14:56:31.337Z,2.90
2023-06-03T14:58:58.751Z,3.00
2023-06-03T15:01:27.624Z,3.08
2023-06-03T15:03:55.255Z,2.88
2023-06-03T15:06:21.708Z,3.03
2023-06-03T15:08:48.138Z,3.20
2023-06-03T15:11:14.635Z,3.05
2023-06-03T15:13:41.084Z,2.85
2023-06-03T15:16:07.747Z,2.45
2023-06-03T15:18:36.024Z,2.95
2023-06-03T15:21:02.508Z,3.38
2023-06-03T15:23:29.478Z,2.90
2023-06-03T15:25:55.971Z,3.00
2023-06-03T15:28:22.438Z,3.40
2023-06-03T15:30:48.872Z,2.70
2023-06-03T15:33:15.412Z,2.92
2023-06-03T15:35:41.835Z,2.90
2023-06-03T15:38:08.350Z,2.90
2023-06-03T15:40:34.770Z,3.38
2023-06-03T15:43:01.553Z,3.20
2023-06-03T15:45:27.947Z,3.13
2023-06-03T15:47:54.522Z,2.42
2023-06-03T15:50:21.227Z,2.92
2023-06-03T15:52:47.910Z,3.58
2023-06-03T15:55:14.341Z,3.03
2023-06-03T15:57:40.770Z,2.50
2023-06-03T16:00:08.131Z,3.28
